createdAt,value
2023-03-14T00:00:11.037Z,2.97
2023-03-14T00:02:38.448Z,3.20
2023-03-14T00:05:07.629Z,2.95
2023-03-14T00:07:36.291Z,3.22
2023-03-14T00:10:08.641Z,2.88
2023-03-14T00:12:35.218Z,2.88
2023-03-14T00:15:04.334Z,3.10
2023-03-14T00:17:31.871Z,2.70
2023-03-14T00:19:58.891Z,3.00
2023-03-14T00:22:25.470Z,2.63
2023-03-14T00:24:52.014Z,2.58
2023-03-14T00:27:18.584Z,2.55
2023-03-14T00:29:45.162Z,2.75
2023-03-14T00:32:11.862Z,2.75
2023-03-14T00:34:38.465Z,3.40
2023-03-14T00:37:05.028Z,2.65
2023-03-14T00:39:31.653Z,2.60
2023-03-14T00:41:58.263Z,2.72
2023-03-14T00:44:24.824Z,2.63
2023-03-14T00:46:51.489Z,3.15
2023-03-14T00:49:18.081Z,2.97
2023-03-14T00:51:44.619Z,3.28
2023-03-14T00:54:11.172Z,2.60
2023-03-14T00:56:37.713Z,2.65
2023-03-14T00:59:04.326Z,2.97
2023-03-14T01:01:31.007Z,2.67
2023-03-14T01:03:57.654Z,3.13
2023-03-14T01:06:26.803Z,2.72
2023-03-14T01:08:54.534Z,2.88
2023-03-14T01:11:27.445Z,2.60
2023-03-14T01:13:54.510Z,2.38
2023-03-14T01:16:22.177Z,2.35
2023-03-14T01:18:48.917Z,2.40
2023-03-14T01:21:21.781Z,3.17
2023-03-14T01:23:49.056Z,2.58
2023-03-14T01:26:20.002Z,2.60
2023-03-14T01:28:47.702Z,2.50
2023-03-14T01:31:14.658Z,2.75
2023-03-14T01:33:41.601Z,2.80
2023-03-14T01:36:09.375Z,2.25
2023-03-14T01:38:37.468Z,3.13
2023-03-14T01:41:04.810Z,2.60
2023-03-14T01:43:31.678Z,2.58
2023-03-14T01:46:14.004Z,2.60
2023-03-14T01:48:40.577Z,2.75
2023-03-14T01:51:10.657Z,2.67
2023-03-14T01:53:38.005Z,2.33
2023-03-14T01:56:04.861Z,2.42
2023-03-14T01:58:33.385Z,2.42
2023-03-14T02:01:00.630Z,2.60
2023-03-14T02:03:28.208Z,2.65
2023-03-14T02:05:56.907Z,2.60
2023-03-14T02:08:25.336Z,2.33
2023-03-14T02:10:51.890Z,2.90
2023-03-14T02:13:20.195Z,2.03
2023-03-14T02:15:47.378Z,2.53
2023-03-14T02:18:14.966Z,1.95
2023-03-14T02:21:07.209Z,2.00
2023-03-14T02:23:41.704Z,2.20
2023-03-14T02:26:21.320Z,2.17
2023-03-14T02:28:49.399Z,2.25
2023-03-14T02:31:16.954Z,2.13
2023-03-14T02:33:43.692Z,1.85
2023-03-14T02:36:13.187Z,2.40
2023-03-14T02:38:42.594Z,2.17
2023-03-14T02:41:09.330Z,2.25
2023-03-14T02:43:35.925Z,1.60
2023-03-14T02:46:03.455Z,2.30
2023-03-14T02:48:41.032Z,1.95
2023-03-14T02:51:09.102Z,2.13
2023-03-14T02:53:37.468Z,1.83
2023-03-14T02:56:04.557Z,2.00
2023-03-14T02:58:31.256Z,1.90
2023-03-14T03:00:58.092Z,1.83
2023-03-14T03:03:24.662Z,1.75
2023-03-14T03:05:52.583Z,1.90
2023-03-14T03:08:20.488Z,2.15
2023-03-14T03:10:47.239Z,1.73
2023-03-14T03:13:13.877Z,1.98
2023-03-14T03:15:41.435Z,1.80
2023-03-14T03:18:08.541Z,2.03
2023-03-14T03:20:35.120Z,1.67
2023-03-14T03:23:01.926Z,2.05
2023-03-14T03:25:29.172Z,1.70
2023-03-14T03:27:55.750Z,1.60
2023-03-14T03:30:22.517Z,1.80
2023-03-14T03:32:49.222Z,1.67
2023-03-14T03:35:16.236Z,1.80
2023-03-14T03:37:42.781Z,1.70
2023-03-14T03:40:10.292Z,1.80
2023-03-14T03:42:37.223Z,1.65
2023-03-14T03:45:04.950Z,1.63
2023-03-14T03:47:32.440Z,1.50
2023-03-14T03:49:58.999Z,1.60
2023-03-14T03:52:25.565Z,1.63
2023-03-14T03:54:52.126Z,1.85
2023-03-14T03:57:18.698Z,1.80
2023-03-14T03:59:45.230Z,1.65
2023-03-14T04:02:11.885Z,1.67
2023-03-14T04:04:40.999Z,2.35
2023-03-14T04:07:07.846Z,1.92
2023-03-14T04:09:34.423Z,1.70
2023-03-14T04:12:00.966Z,2.20
2023-03-14T04:14:27.593Z,2.38
2023-03-14T04:16:54.149Z,2.17
2023-03-14T04:19:21.694Z,1.98
2023-03-14T04:21:48.258Z,2.25
2023-03-14T04:24:15.287Z,2.00
2023-03-14T04:26:41.855Z,1.85
2023-03-14T04:29:08.402Z,2.00
2023-03-14T04:31:35.015Z,2.20
2023-03-14T04:34:01.663Z,2.30
2023-03-14T04:36:28.260Z,2.20
2023-03-14T04:38:54.842Z,2.20
2023-03-14T04:41:21.444Z,2.38
2023-03-14T04:43:48.009Z,2.33
2023-03-14T04:46:14.625Z,2.10
2023-03-14T04:48:41.342Z,1.55
2023-03-14T04:51:08.181Z,2.42
2023-03-14T04:53:35.396Z,1.92
2023-03-14T04:56:02.422Z,2.03
2023-03-14T04:58:30.124Z,2.42
2023-03-14T05:00:56.720Z,1.73
2023-03-14T05:03:30.556Z,2.10
2023-03-14T05:05:58.442Z,2.47
2023-03-14T05:08:25.053Z,2.10
2023-03-14T05:10:55.547Z,2.30
2023-03-14T05:13:22.560Z,2.17
2023-03-14T05:15:49.519Z,2.20
2023-03-14T05:18:16.144Z,2.33
2023-03-14T05:20:44.210Z,2.10
2023-03-14T05:23:11.146Z,2.45
2023-03-14T05:25:37.749Z,2.17
2023-03-14T05:28:04.791Z,1.58
2023-03-14T05:30:31.888Z,2.10
2023-03-14T05:32:58.601Z,2.15
2023-03-14T05:35:27.881Z,1.98
2023-03-14T05:37:54.455Z,1.83
2023-03-14T05:40:21.055Z,1.60
2023-03-14T05:42:47.650Z,2.25
2023-03-14T05:45:14.225Z,1.70
2023-03-14T05:47:40.786Z,1.42
2023-03-14T05:50:07.684Z,1.88
2023-03-14T05:52:34.240Z,1.33
2023-03-14T05:55:00.827Z,1.92
2023-03-14T05:57:27.458Z,1.50
2023-03-14T05:59:54.016Z,1.33
2023-03-14T06:02:20.585Z,1.17
2023-03-14T06:04:47.176Z,1.73
2023-03-14T06:07:13.766Z,1.98
2023-03-14T06:09:49.440Z,1.40
2023-03-14T06:12:16.004Z,1.55
2023-03-14T06:14:42.650Z,1.50
2023-03-14T06:17:09.247Z,1.48
2023-03-14T06:19:35.803Z,1.42
2023-03-14T06:22:02.383Z,1.60
2023-03-14T06:24:32.055Z,1.33
2023-03-14T06:26:58.630Z,1.40
2023-03-14T06:29:25.210Z,1.20
2023-03-14T06:31:51.801Z,1.30
2023-03-14T06:34:18.377Z,1.10
2023-03-14T06:36:44.925Z,1.50
2023-03-14T06:39:11.502Z,1.25
2023-03-14T06:41:38.170Z,1.10
2023-03-14T06:44:04.907Z,1.33
2023-03-14T06:46:31.482Z,1.20
2023-03-14T06:48:58.079Z,1.30
2023-03-14T06:51:24.666Z,1.10
2023-03-14T06:53:51.237Z,1.23
2023-03-14T06:56:17.813Z,1.10
2023-03-14T06:58:47.241Z,1.27
2023-03-14T07:01:41.307Z,1.10
2023-03-14T07:04:07.978Z,1.00
2023-03-14T07:06:35.245Z,1.00
2023-03-14T07:09:04.090Z,1.05
2023-03-14T07:11:30.778Z,1.20
2023-03-14T07:13:57.358Z,0.70
2023-03-14T07:16:23.993Z,0.98
2023-03-14T07:18:50.545Z,1.10
2023-03-14T07:21:17.149Z,0.70
2023-03-14T07:23:43.727Z,1.00
2023-03-14T07:26:10.354Z,0.88
2023-03-14T07:28:36.934Z,0.82
2023-03-14T07:31:03.609Z,0.98
2023-03-14T07:33:30.172Z,0.90
2023-03-14T07:35:56.818Z,1.00
2023-03-14T07:38:23.418Z,0.70
2023-03-14T07:40:50.152Z,0.90
2023-03-14T07:43:16.708Z,0.70
2023-03-14T07:45:50.975Z,0.85
2023-03-14T07:48:18.209Z,0.98
2023-03-14T07:50:44.837Z,0.70
2023-03-14T07:53:11.409Z,1.00
2023-03-14T07:55:37.970Z,0.68
2023-03-14T07:58:04.568Z,0.73
2023-03-14T08:00:31.171Z,0.68
2023-03-14T08:02:57.760Z,1.00
2023-03-14T08:05:24.362Z,0.70
2023-03-14T08:07:51.041Z,0.70
2023-03-14T08:10:23.867Z,0.88
2023-03-14T08:13:00.203Z,0.77
2023-03-14T08:15:27.824Z,0.60
2023-03-14T08:17:54.965Z,0.80
2023-03-14T08:20:23.251Z,0.63
2023-03-14T08:22:50.217Z,0.73
2023-03-14T08:25:17.375Z,0.60
2023-03-14T08:27:44.597Z,0.73
2023-03-14T08:30:14.032Z,0.80
2023-03-14T08:32:40.771Z,0.70
2023-03-14T08:35:08.280Z,0.82
2023-03-14T08:37:36.169Z,0.75
2023-03-14T08:40:07.449Z,0.70
2023-03-14T08:42:34.746Z,0.80
2023-03-14T08:45:01.303Z,0.82
2023-03-14T08:47:28.602Z,0.52
2023-03-14T08:49:55.295Z,0.90
2023-03-14T08:52:21.890Z,0.55
2023-03-14T08:54:48.459Z,0.70
2023-03-14T08:57:15.073Z,0.70
2023-03-14T08:59:41.668Z,0.73
2023-03-14T09:02:13.328Z,0.40
2023-03-14T09:04:40.124Z,0.73
2023-03-14T09:07:06.736Z,0.60
2023-03-14T09:09:33.344Z,0.85
2023-03-14T09:12:00.131Z,0.60
2023-03-14T09:14:26.836Z,0.70
2023-03-14T09:16:53.578Z,0.85
2023-03-14T09:19:20.228Z,0.60
2023-03-14T09:21:46.785Z,0.70
2023-03-14T09:24:13.352Z,0.55
2023-03-14T09:26:39.936Z,0.88
2023-03-14T09:29:06.666Z,0.70
2023-03-14T09:31:33.372Z,0.70
2023-03-14T09:34:00.042Z,0.82
2023-03-14T09:36:26.610Z,0.70
2023-03-14T09:38:53.173Z,0.68
2023-03-14T09:41:26.598Z,0.75
2023-03-14T09:44:03.516Z,0.55
2023-03-14T09:46:31.715Z,1.00
2023-03-14T09:48:58.371Z,0.70
2023-03-14T09:51:25.272Z,0.73
2023-03-14T09:53:53.024Z,0.82
2023-03-14T09:56:22.785Z,0.90
2023-03-14T09:59:04.537Z,0.95
2023-03-14T10:01:33.175Z,0.60
2023-03-14T10:04:04.424Z,0.85
2023-03-14T10:06:31.865Z,0.90
2023-03-14T10:08:58.569Z,0.80
2023-03-14T10:11:25.813Z,0.80
2023-03-14T10:14:10.342Z,1.17
2023-03-14T10:16:41.681Z,1.05
2023-03-14T10:19:12.099Z,1.08
2023-03-14T10:21:42.705Z,0.90
2023-03-14T10:24:35.629Z,1.10
2023-03-14T10:27:03.777Z,1.00
2023-03-14T10:29:31.844Z,0.95
2023-03-14T10:32:02.702Z,1.00
2023-03-14T10:34:35.078Z,1.00
2023-03-14T10:37:28.590Z,0.90
2023-03-14T10:39:57.301Z,1.10
2023-03-14T10:42:30.878Z,0.90
2023-03-14T10:45:00.234Z,1.00
2023-03-14T10:47:29.319Z,0.73
2023-03-14T10:49:57.120Z,1.20
2023-03-14T10:52:31.185Z,0.88
2023-03-14T10:55:09.428Z,1.00
2023-03-14T10:57:40.302Z,1.00
2023-03-14T11:00:10.135Z,0.85
2023-03-14T11:02:55.273Z,0.85
2023-03-14T11:05:59.580Z,0.85
2023-03-14T11:11:22.870Z,1.00
2023-03-14T11:13:56.139Z,0.98
2023-03-14T11:16:39.244Z,0.60
2023-03-14T11:19:28.771Z,1.13
2023-03-14T11:22:27.569Z,1.00
2023-03-14T11:25:06.442Z,0.73
2023-03-14T11:27:49.859Z,0.70
2023-03-14T11:30:29.732Z,0.73
2023-03-14T11:33:10.380Z,0.90
2023-03-14T11:35:59.821Z,0.75
2023-03-14T11:38:43.079Z,0.90
2023-03-14T11:41:20.888Z,0.93
2023-03-14T11:43:54.892Z,0.90
2023-03-14T11:46:29.352Z,0.90
2023-03-14T11:49:07.016Z,0.57
2023-03-14T11:51:40.938Z,0.98
2023-03-14T11:54:43.945Z,1.20
2023-03-14T11:57:16.027Z,0.80
2023-03-14T12:00:13.187Z,1.00
2023-03-14T12:02:52.154Z,1.08
2023-03-14T12:05:48.869Z,0.73
2023-03-14T12:08:40.947Z,0.90
2023-03-14T12:11:20.754Z,0.80
2023-03-14T12:13:50.222Z,0.80
2023-03-14T12:16:41.423Z,0.90
2023-03-14T12:19:23.214Z,0.82
2023-03-14T12:22:01.850Z,0.95
2023-03-14T12:24:32.912Z,1.00
2023-03-14T12:27:01.925Z,1.00
2023-03-14T12:29:28.584Z,0.98
2023-03-14T12:32:01.203Z,1.15
2023-03-14T12:34:48.429Z,0.60
2023-03-14T12:37:29.681Z,0.88
2023-03-14T12:40:27.447Z,0.70
2023-03-14T12:43:02.250Z,0.90
2023-03-14T12:45:33.756Z,1.05
2023-03-14T12:48:21.416Z,0.95
2023-03-14T12:50:55.845Z,0.80
2023-03-14T12:53:45.036Z,0.90
2023-03-14T12:56:35.638Z,1.38
2023-03-14T12:59:38.108Z,0.80
2023-03-14T13:02:07.597Z,1.35
2023-03-14T13:04:40.324Z,1.00
2023-03-14T13:07:12.720Z,0.80
2023-03-14T13:09:53.235Z,0.90
2023-03-14T13:12:24.904Z,0.93
2023-03-14T13:14:54.956Z,0.80
2023-03-14T13:17:35.774Z,0.80
2023-03-14T13:20:18.108Z,0.80
2023-03-14T13:22:49.143Z,0.95
2023-03-14T13:25:17.733Z,1.20
2023-03-14T13:27:44.312Z,1.00
2023-03-14T13:30:41.170Z,1.05
2023-03-14T13:33:07.878Z,0.70
2023-03-14T13:35:56.530Z,1.13
2023-03-14T13:38:28.623Z,1.08
2023-03-14T13:41:00.354Z,0.90
2023-03-14T13:43:44.460Z,0.70
2023-03-14T13:46:24.312Z,0.90
2023-03-14T13:48:57.638Z,1.02
2023-03-14T13:51:25.934Z,1.17
2023-03-14T13:53:54.846Z,1.00
2023-03-14T13:56:23.566Z,1.05
2023-03-14T13:58:50.520Z,0.80
2023-03-14T14:01:21.124Z,0.95
2023-03-14T14:03:52.583Z,1.08
2023-03-14T14:06:38.723Z,0.95
2023-03-14T14:09:13.962Z,1.00
2023-03-14T14:12:11.299Z,0.90
2023-03-14T14:14:47.713Z,1.10
2023-03-14T14:17:17.357Z,0.90
2023-03-14T14:19:44.735Z,0.85
2023-03-14T14:22:11.811Z,0.90
2023-03-14T14:24:39.068Z,0.85
2023-03-14T14:27:19.002Z,1.05
2023-03-14T14:29:46.711Z,1.00
2023-03-14T14:32:15.537Z,1.15
2023-03-14T14:34:50.283Z,1.10
2023-03-14T14:37:28.197Z,0.90
2023-03-14T14:39:59.934Z,1.27
2023-03-14T14:42:29.545Z,0.95
2023-03-14T14:44:57.245Z,0.82
2023-03-14T14:47:26.053Z,1.00
2023-03-14T14:49:55.094Z,1.17
2023-03-14T14:52:31.787Z,1.10
2023-03-14T14:55:02.660Z,1.10
2023-03-14T14:57:36.495Z,1.20
2023-03-14T15:00:13.140Z,1.13
2023-03-14T15:02:50.780Z,1.00
2023-03-14T15:05:25.190Z,0.80
2023-03-14T15:07:52.043Z,0.85
2023-03-14T15:10:21.311Z,1.00
2023-03-14T15:12:50.939Z,1.20
2023-03-14T15:15:18.545Z,1.30
2023-03-14T15:17:45.164Z,1.00
2023-03-14T15:20:14.321Z,0.93
2023-03-14T15:22:41.666Z,0.90
2023-03-14T15:25:12.972Z,1.15
2023-03-14T15:27:45.409Z,0.88
2023-03-14T15:30:13.883Z,0.70
2023-03-14T15:32:40.561Z,0.90
2023-03-14T15:35:08.414Z,1.23
2023-03-14T15:37:35.140Z,1.20
2023-03-14T15:40:04.037Z,0.80
2023-03-14T15:42:30.592Z,0.70
2023-03-14T15:44:57.340Z,0.88
2023-03-14T15:47:23.922Z,1.23
2023-03-14T15:49:50.525Z,1.02
2023-03-14T15:52:17.190Z,1.02
2023-03-14T15:54:43.726Z,0.73
2023-03-14T15:57:11.688Z,0.77
2023-03-14T15:59:38.371Z,1.08
2023-03-14T16:02:04.969Z,1.02
2023-03-14T16:04:31.537Z,1.02
2023-03-14T16:06:58.120Z,0.90
2023-03-14T16:09:25.805Z,0.90
2023-03-14T16:11:52.355Z,0.82
2023-03-14T16:14:18.904Z,1.08
2023-03-14T16:16:45.547Z,0.90
2023-03-14T16:19:12.178Z,0.77
2023-03-14T16:21:38.764Z,1.02
2023-03-14T16:24:11.179Z,1.15
2023-03-14T16:26:37.936Z,0.90
2023-03-14T16:29:05.393Z,0.90
2023-03-14T16:31:32.026Z,1.02
2023-03-14T16:34:03.698Z,0.90
2023-03-14T16:36:30.413Z,1.20
2023-03-14T16:38:56.997Z,0.93
2023-03-14T16:41:23.599Z,0.80
2023-03-14T16:43:54.462Z,0.90
2023-03-14T16:49:09.052Z,1.05
2023-03-14T16:51:35.620Z,1.25
2023-03-14T16:54:02.208Z,0.85
2023-03-14T16:56:28.763Z,1.00
2023-03-14T16:58:55.344Z,0.88
2023-03-14T17:01:22.231Z,0.80
2023-03-14T17:03:50.145Z,1.00
2023-03-14T17:06:26.352Z,1.10
2023-03-14T17:08:54.454Z,1.10
2023-03-14T17:11:21.127Z,1.08
2023-03-14T17:13:47.786Z,0.93
2023-03-14T17:16:14.471Z,0.98
2023-03-14T17:18:41.103Z,1.08
2023-03-14T17:21:07.773Z,1.35
2023-03-14T17:23:35.200Z,0.82
2023-03-14T17:26:02.015Z,1.05
2023-03-14T17:28:28.875Z,1.30
2023-03-14T17:31:28.352Z,1.02
2023-03-14T17:33:55.266Z,0.95
2023-03-14T17:36:28.913Z,0.90
2023-03-14T17:38:57.476Z,0.90
2023-03-14T17:41:24.712Z,0.80
2023-03-14T17:43:51.285Z,1.20
2023-03-14T17:46:18.057Z,0.80
2023-03-14T17:48:46.223Z,0.80
2023-03-14T17:51:13.492Z,1.08
2023-03-14T17:53:40.225Z,0.80
2023-03-14T17:56:07.670Z,0.88
2023-03-14T17:58:36.664Z,0.90
2023-03-14T18:01:14.848Z,0.77
2023-03-14T18:03:41.905Z,0.68
2023-03-14T18:06:10.104Z,0.80
2023-03-14T18:08:37.947Z,1.02
2023-03-14T18:11:04.731Z,0.90
2023-03-14T18:13:31.400Z,0.63
2023-03-14T18:15:58.523Z,0.80
2023-03-14T18:18:25.468Z,0.90
2023-03-14T18:20:53.772Z,0.60
2023-03-14T18:23:21.432Z,0.77
2023-03-14T18:25:51.554Z,0.80
2023-03-14T18:28:19.203Z,0.47
2023-03-14T18:30:52.148Z,0.93
2023-03-14T18:33:22.333Z,0.90
2023-03-14T18:35:52.066Z,0.70
2023-03-14T18:38:19.716Z,0.60
2023-03-14T18:40:46.331Z,0.70
2023-03-14T18:43:12.919Z,0.90
2023-03-14T18:45:39.500Z,0.80
2023-03-14T18:48:06.318Z,0.90
2023-03-14T18:50:33.396Z,0.55
2023-03-14T18:52:59.981Z,0.60
2023-03-14T18:55:26.531Z,0.98
2023-03-14T18:57:53.284Z,0.70
2023-03-14T19:00:20.414Z,0.70
2023-03-14T19:02:46.995Z,0.90
2023-03-14T19:05:13.613Z,0.80
2023-03-14T19:07:40.182Z,0.85
2023-03-14T19:10:06.958Z,0.50
2023-03-14T19:12:33.594Z,0.90
2023-03-14T19:15:00.213Z,0.60
2023-03-14T19:17:26.848Z,0.73
2023-03-14T19:19:54.149Z,0.60
2023-03-14T19:22:21.080Z,0.70
2023-03-14T19:24:47.664Z,0.80
2023-03-14T19:27:14.326Z,0.85
2023-03-14T19:29:42.321Z,0.60
2023-03-14T19:32:09.884Z,0.80
2023-03-14T19:34:36.454Z,0.60
2023-03-14T19:37:03.070Z,0.70
2023-03-14T19:39:29.622Z,0.82
2023-03-14T19:41:59.489Z,1.00
2023-03-14T19:44:26.643Z,0.70
2023-03-14T19:46:53.815Z,0.65
2023-03-14T19:49:21.843Z,0.82
2023-03-14T19:51:49.428Z,0.75
2023-03-14T19:54:16.350Z,0.88
2023-03-14T19:56:42.989Z,0.90
2023-03-14T19:59:09.550Z,0.80
2023-03-14T20:01:38.777Z,0.80
2023-03-14T20:04:05.829Z,0.77
2023-03-14T20:06:33.046Z,0.80
2023-03-14T20:09:00.052Z,0.88
2023-03-14T20:11:26.657Z,0.85
2023-03-14T20:13:53.268Z,0.70
2023-03-14T20:16:19.937Z,0.80
2023-03-14T20:18:46.552Z,0.90
2023-03-14T20:21:14.097Z,0.70
2023-03-14T20:23:40.699Z,0.75
2023-03-14T20:26:07.312Z,0.88
2023-03-14T20:28:33.916Z,0.90
2023-03-14T20:31:01.178Z,1.00
2023-03-14T20:33:27.854Z,1.10
2023-03-14T20:35:59.456Z,0.98
2023-03-14T20:38:27.209Z,1.10
2023-03-14T20:40:58.431Z,0.90
2023-03-14T20:43:25.419Z,0.80
2023-03-14T20:45:56.713Z,0.98
2023-03-14T20:48:24.142Z,1.00
2023-03-14T20:50:50.980Z,0.80
2023-03-14T20:53:18.661Z,1.05
2023-03-14T20:55:45.511Z,0.90
2023-03-14T20:58:13.164Z,0.90
2023-03-14T21:00:50.518Z,0.93
2023-03-14T21:03:17.849Z,0.93
2023-03-14T21:05:46.607Z,0.80
2023-03-14T21:08:14.606Z,1.10
2023-03-14T21:10:41.149Z,1.15
2023-03-14T21:13:07.789Z,1.00
2023-03-14T21:15:36.901Z,0.90
2023-03-14T21:18:05.604Z,0.80
2023-03-14T21:20:33.704Z,1.08
2023-03-14T21:23:00.258Z,0.90
2023-03-14T21:25:27.034Z,1.00
2023-03-14T21:27:53.579Z,1.00
2023-03-14T21:30:20.387Z,1.20
2023-03-14T21:32:46.996Z,0.82
2023-03-14T21:35:13.601Z,0.70
2023-03-14T21:37:40.303Z,0.90
2023-03-14T21:40:10.013Z,0.90
2023-03-14T21:42:36.841Z,0.70
2023-03-14T21:45:03.568Z,0.88
2023-03-14T21:47:30.120Z,1.20
2023-03-14T21:49:56.642Z,1.00
2023-03-14T21:52:23.174Z,0.98
2023-03-14T21:54:51.429Z,0.90
2023-03-14T21:57:17.969Z,0.80
2023-03-14T21:59:46.689Z,0.80
2023-03-14T22:02:18.263Z,0.90
2023-03-14T22:04:45.104Z,0.80
2023-03-14T22:07:13.834Z,0.95
2023-03-14T22:09:42.899Z,0.90
2023-03-14T22:12:11.010Z,0.95
2023-03-14T22:14:37.567Z,1.17
2023-03-14T22:17:04.216Z,0.80
2023-03-14T22:19:32.435Z,0.93
2023-03-14T22:21:58.962Z,1.00
2023-03-14T22:24:25.588Z,1.20
2023-03-14T22:26:53.598Z,1.10
2023-03-14T22:29:20.960Z,0.82
2023-03-14T22:31:48.167Z,1.00
2023-03-14T22:34:14.867Z,1.15
2023-03-14T22:36:41.594Z,0.60
2023-03-14T22:39:08.557Z,1.00
2023-03-14T22:41:35.645Z,1.23
2023-03-14T22:44:02.245Z,0.63
2023-03-14T22:46:28.902Z,0.63
2023-03-14T22:48:55.450Z,0.80
2023-03-14T22:51:22.041Z,1.00
2023-03-14T22:53:49.147Z,0.80
2023-03-14T22:56:15.814Z,0.88
2023-03-14T22:58:42.360Z,0.85
2023-03-14T23:01:09.015Z,0.80
2023-03-14T23:03:35.598Z,1.08
2023-03-14T23:06:05.257Z,1.20
2023-03-14T23:08:33.275Z,0.80
2023-03-14T23:11:04.082Z,0.90
2023-03-14T23:13:31.365Z,1.00
2023-03-14T23:15:58.774Z,0.70
2023-03-14T23:18:27.553Z,0.90
2023-03-14T23:21:05.688Z,0.80
2023-03-14T23:23:32.222Z,1.00
2023-03-14T23:25:58.824Z,1.05
2023-03-14T23:28:25.358Z,1.00
2023-03-14T23:30:56.173Z,0.60
2023-03-14T23:33:23.555Z,0.80
2023-03-14T23:35:50.134Z,0.90
2023-03-14T23:38:16.706Z,1.02
2023-03-14T23:40:43.765Z,0.70
2023-03-14T23:43:10.362Z,0.82
2023-03-14T23:45:37.415Z,0.80
2023-03-14T23:48:04.842Z,0.88
2023-03-14T23:50:31.365Z,0.70
2023-03-14T23:52:57.926Z,0.80
2023-03-14T23:55:24.487Z,0.70
2023-03-14T23:57:52.150Z,0.70
